sensor_id;sensor_type;location;lat;lon;timestamp;P1;durP1;ratioP1;P2;durP2;ratioP2
71108;SDS011;59614;51.012;-1.648;2023-05-29T00:00:30;12.23;;;5.00;;
71108;SDS011;59614;51.012;-1.648;2023-05-29T00:02:55;13.15;;;5.65;;
71108;SDS011;59614;51.012;-1.648;2023-05-29T00:05:20;12.00;;;5.05;;
71108;SDS011;59614;51.012;-1.648;2023-05-29T00:07:46;13.90;;;5.80;;
71108;SDS011;59614;51.012;-1.648;2023-05-29T00:10:12;12.15;;;5.45;;
71108;SDS011;59614;51.012;-1.648;2023-05-29T00:12:38;15.73;;;6.25;;
71108;SDS011;59614;51.012;-1.648;2023-05-29T00:15:04;14.55;;;5.30;;
71108;SDS011;59614;51.012;-1.648;2023-05-29T00:17:30;16.35;;;5.53;;
71108;SDS011;59614;51.012;-1.648;2023-05-29T00:19:57;13.38;;;5.00;;
71108;SDS011;59614;51.012;-1.648;2023-05-29T00:22:28;14.52;;;4.85;;
71108;SDS011;59614;51.012;-1.648;2023-05-29T00:24:53;13.88;;;4.85;;
71108;SDS011;59614;51.012;-1.648;2023-05-29T00:27:19;15.60;;;5.38;;
71108;SDS011;59614;51.012;-1.648;2023-05-29T00:29:45;14.57;;;4.80;;
71108;SDS011;59614;51.012;-1.648;2023-05-29T00:32:11;12.52;;;4.47;;
71108;SDS011;59614;51.012;-1.648;2023-05-29T00:34:37;12.45;;;4.65;;
71108;SDS011;59614;51.012;-1.648;2023-05-29T00:37:02;15.40;;;4.80;;
71108;SDS011;59614;51.012;-1.648;2023-05-29T00:39:28;16.38;;;4.65;;
71108;SDS011;59614;51.012;-1.648;2023-05-29T00:41:53;18.20;;;4.65;;
71108;SDS011;59614;51.012;-1.648;2023-05-29T00:44:20;12.48;;;4.30;;
71108;SDS011;59614;51.012;-1.648;2023-05-29T00:46:46;14.85;;;4.28;;
71108;SDS011;59614;51.012;-1.648;2023-05-29T00:49:13;15.55;;;5.03;;
71108;SDS011;59614;51.012;-1.648;2023-05-29T00:51:39;14.48;;;4.13;;
71108;SDS011;59614;51.012;-1.648;2023-05-29T00:54:08;18.25;;;4.57;;
71108;SDS011;59614;51.012;-1.648;2023-05-29T00:56:41;19.67;;;4.25;;
71108;SDS011;59614;51.012;-1.648;2023-05-29T00:59:10;14.00;;;3.97;;
71108;SDS011;59614;51.012;-1.648;2023-05-29T01:01:37;18.02;;;4.30;;
71108;SDS011;59614;51.012;-1.648;2023-05-29T01:04:03;15.02;;;4.03;;
71108;SDS011;59614;51.012;-1.648;2023-05-29T01:08:57;12.73;;;3.58;;
71108;SDS011;59614;51.012;-1.648;2023-05-29T01:11:27;19.13;;;4.13;;
71108;SDS011;59614;51.012;-1.648;2023-05-29T01:14:00;18.35;;;4.38;;
71108;SDS011;59614;51.012;-1.648;2023-05-29T01:16:38;13.65;;;4.35;;
71108;SDS011;59614;51.012;-1.648;2023-05-29T01:19:36;13.98;;;4.03;;
71108;SDS011;59614;51.012;-1.648;2023-05-29T01:25:23;18.58;;;3.97;;
71108;SDS011;59614;51.012;-1.648;2023-05-29T01:28:00;12.63;;;3.90;;
71108;SDS011;59614;51.012;-1.648;2023-05-29T01:30:29;15.13;;;3.53;;
71108;SDS011;59614;51.012;-1.648;2023-05-29T01:32:58;13.05;;;3.38;;
71108;SDS011;59614;51.012;-1.648;2023-05-29T01:35:24;14.18;;;3.38;;
71108;SDS011;59614;51.012;-1.648;2023-05-29T01:37:50;13.98;;;3.53;;
71108;SDS011;59614;51.012;-1.648;2023-05-29T01:40:15;20.63;;;3.83;;
71108;SDS011;59614;51.012;-1.648;2023-05-29T01:42:41;16.55;;;3.60;;
71108;SDS011;59614;51.012;-1.648;2023-05-29T01:45:07;15.63;;;3.55;;
71108;SDS011;59614;51.012;-1.648;2023-05-29T01:47:34;14.00;;;3.55;;
71108;SDS011;59614;51.012;-1.648;2023-05-29T01:49:59;14.80;;;3.65;;
71108;SDS011;59614;51.012;-1.648;2023-05-29T01:52:25;15.82;;;3.60;;
71108;SDS011;59614;51.012;-1.648;2023-05-29T01:54:51;11.23;;;3.55;;
71108;SDS011;59614;51.012;-1.648;2023-05-29T01:57:16;13.52;;;3.92;;
71108;SDS011;59614;51.012;-1.648;2023-05-29T01:59:42;15.25;;;3.28;;
71108;SDS011;59614;51.012;-1.648;2023-05-29T02:02:08;12.80;;;3.67;;
71108;SDS011;59614;51.012;-1.648;2023-05-29T02:04:34;9.75;;;3.22;;
71108;SDS011;59614;51.012;-1.648;2023-05-29T02:06:59;14.25;;;3.03;;
71108;SDS011;59614;51.012;-1.648;2023-05-29T02:09:24;16.15;;;3.70;;
71108;SDS011;59614;51.012;-1.648;2023-05-29T02:11:50;13.57;;;3.25;;
71108;SDS011;59614;51.012;-1.648;2023-05-29T02:14:16;14.63;;;3.83;;
71108;SDS011;59614;51.012;-1.648;2023-05-29T02:16:41;17.35;;;3.58;;
71108;SDS011;59614;51.012;-1.648;2023-05-29T02:19:08;15.93;;;3.50;;
71108;SDS011;59614;51.012;-1.648;2023-05-29T02:21:37;12.75;;;3.20;;
71108;SDS011;59614;51.012;-1.648;2023-05-29T02:24:04;12.63;;;3.05;;
71108;SDS011;59614;51.012;-1.648;2023-05-29T02:26:30;14.50;;;3.30;;
71108;SDS011;59614;51.012;-1.648;2023-05-29T02:28:56;11.77;;;3.50;;
71108;SDS011;59614;51.012;-1.648;2023-05-29T02:31:21;14.68;;;3.53;;
71108;SDS011;59614;51.012;-1.648;2023-05-29T02:33:47;14.52;;;3.53;;
71108;SDS011;59614;51.012;-1.648;2023-05-29T02:36:13;10.80;;;3.38;;
71108;SDS011;59614;51.012;-1.648;2023-05-29T02:38:38;14.00;;;3.33;;
71108;SDS011;59614;51.012;-1.648;2023-05-29T02:41:03;14.77;;;3.10;;
71108;SDS011;59614;51.012;-1.648;2023-05-29T02:43:29;9.25;;;3.00;;
71108;SDS011;59614;51.012;-1.648;2023-05-29T02:45:54;11.88;;;3.22;;
71108;SDS011;59614;51.012;-1.648;2023-05-29T02:48:20;16.88;;;3.65;;
71108;SDS011;59614;51.012;-1.648;2023-05-29T02:50:46;10.40;;;3.60;;
71108;SDS011;59614;51.012;-1.648;2023-05-29T02:53:11;11.45;;;3.17;;
71108;SDS011;59614;51.012;-1.648;2023-05-29T02:55:36;13.90;;;2.90;;
71108;SDS011;59614;51.012;-1.648;2023-05-29T02:58:02;17.05;;;3.13;;
71108;SDS011;59614;51.012;-1.648;2023-05-29T03:00:27;11.65;;;3.45;;
71108;SDS011;59614;51.012;-1.648;2023-05-29T03:02:53;13.43;;;3.42;;
71108;SDS011;59614;51.012;-1.648;2023-05-29T03:05:19;16.42;;;4.00;;
71108;SDS011;59614;51.012;-1.648;2023-05-29T03:07:45;15.75;;;3.85;;
71108;SDS011;59614;51.012;-1.648;2023-05-29T03:10:10;13.32;;;3.17;;
71108;SDS011;59614;51.012;-1.648;2023-05-29T03:12:35;16.45;;;3.38;;
71108;SDS011;59614;51.012;-1.648;2023-05-29T03:15:01;12.52;;;3.72;;
71108;SDS011;59614;51.012;-1.648;2023-05-29T03:17:27;14.32;;;3.38;;
71108;SDS011;59614;51.012;-1.648;2023-05-29T03:19:52;17.02;;;3.72;;
71108;SDS011;59614;51.012;-1.648;2023-05-29T03:22:18;12.82;;;3.55;;
71108;SDS011;59614;51.012;-1.648;2023-05-29T03:24:43;15.50;;;3.50;;
71108;SDS011;59614;51.012;-1.648;2023-05-29T03:27:08;15.75;;;3.22;;
71108;SDS011;59614;51.012;-1.648;2023-05-29T03:29:34;13.65;;;3.38;;
71108;SDS011;59614;51.012;-1.648;2023-05-29T03:31:59;17.77;;;3.72;;
71108;SDS011;59614;51.012;-1.648;2023-05-29T03:34:25;13.00;;;3.30;;
71108;SDS011;59614;51.012;-1.648;2023-05-29T03:36:50;13.75;;;3.97;;
71108;SDS011;59614;51.012;-1.648;2023-05-29T03:39:15;14.40;;;3.25;;
71108;SDS011;59614;51.012;-1.648;2023-05-29T03:41:41;13.30;;;3.30;;
71108;SDS011;59614;51.012;-1.648;2023-05-29T03:44:06;16.00;;;3.63;;
71108;SDS011;59614;51.012;-1.648;2023-05-29T03:46:32;13.60;;;3.30;;
71108;SDS011;59614;51.012;-1.648;2023-05-29T03:48:57;17.98;;;3.70;;
71108;SDS011;59614;51.012;-1.648;2023-05-29T03:51:22;18.17;;;3.78;;
71108;SDS011;59614;51.012;-1.648;2023-05-29T03:53:48;10.98;;;3.47;;
71108;SDS011;59614;51.012;-1.648;2023-05-29T03:56:13;10.13;;;3.28;;
71108;SDS011;59614;51.012;-1.648;2023-05-29T03:58:39;16.40;;;3.40;;
71108;SDS011;59614;51.012;-1.648;2023-05-29T04:01:04;17.58;;;4.05;;
71108;SDS011;59614;51.012;-1.648;2023-05-29T04:03:29;10.43;;;3.15;;
71108;SDS011;59614;51.012;-1.648;2023-05-29T04:05:56;21.00;;;3.67;;
71108;SDS011;59614;51.012;-1.648;2023-05-29T04:08:21;13.55;;;3.63;;
71108;SDS011;59614;51.012;-1.648;2023-05-29T04:10:46;13.48;;;3.70;;
71108;SDS011;59614;51.012;-1.648;2023-05-29T04:13:12;11.68;;;3.10;;
71108;SDS011;59614;51.012;-1.648;2023-05-29T04:15:37;18.85;;;3.25;;
71108;SDS011;59614;51.012;-1.648;2023-05-29T04:18:03;16.60;;;3.78;;
71108;SDS011;59614;51.012;-1.648;2023-05-29T04:20:28;10.85;;;3.15;;
71108;SDS011;59614;51.012;-1.648;2023-05-29T04:22:55;16.42;;;3.65;;
71108;SDS011;59614;51.012;-1.648;2023-05-29T04:25:20;16.27;;;3.17;;
71108;SDS011;59614;51.012;-1.648;2023-05-29T04:27:45;14.55;;;3.60;;
71108;SDS011;59614;51.012;-1.648;2023-05-29T04:30:14;11.73;;;3.25;;
71108;SDS011;59614;51.012;-1.648;2023-05-29T04:32:40;10.38;;;3.47;;
71108;SDS011;59614;51.012;-1.648;2023-05-29T04:35:05;15.90;;;3.72;;
71108;SDS011;59614;51.012;-1.648;2023-05-29T04:37:31;10.40;;;3.25;;
71108;SDS011;59614;51.012;-1.648;2023-05-29T04:40:02;15.65;;;3.67;;
71108;SDS011;59614;51.012;-1.648;2023-05-29T04:42:33;15.18;;;3.40;;
71108;SDS011;59614;51.012;-1.648;2023-05-29T04:44:59;15.30;;;3.70;;
71108;SDS011;59614;51.012;-1.648;2023-05-29T04:47:25;14.23;;;3.80;;
71108;SDS011;59614;51.012;-1.648;2023-05-29T04:49:51;16.05;;;3.50;;
71108;SDS011;59614;51.012;-1.648;2023-05-29T04:52:17;20.42;;;3.42;;
71108;SDS011;59614;51.012;-1.648;2023-05-29T04:54:42;15.50;;;3.50;;
71108;SDS011;59614;51.012;-1.648;2023-05-29T04:57:07;15.13;;;3.70;;
71108;SDS011;59614;51.012;-1.648;2023-05-29T04:59:33;21.23;;;3.67;;
71108;SDS011;59614;51.012;-1.648;2023-05-29T05:01:59;11.82;;;3.22;;
71108;SDS011;59614;51.012;-1.648;2023-05-29T05:04:25;14.20;;;3.25;;
71108;SDS011;59614;51.012;-1.648;2023-05-29T05:06:50;16.75;;;3.47;;
71108;SDS011;59614;51.012;-1.648;2023-05-29T05:09:16;22.00;;;3.67;;
71108;SDS011;59614;51.012;-1.648;2023-05-29T05:11:42;14.70;;;3.38;;
71108;SDS011;59614;51.012;-1.648;2023-05-29T05:14:08;17.20;;;3.40;;
71108;SDS011;59614;51.012;-1.648;2023-05-29T05:16:33;17.02;;;3.97;;
71108;SDS011;59614;51.012;-1.648;2023-05-29T05:18:59;15.90;;;3.42;;
71108;SDS011;59614;51.012;-1.648;2023-05-29T05:21:24;18.52;;;3.15;;
71108;SDS011;59614;51.012;-1.648;2023-05-29T05:23:49;21.85;;;3.28;;
71108;SDS011;59614;51.012;-1.648;2023-05-29T05:26:15;15.45;;;3.30;;
71108;SDS011;59614;51.012;-1.648;2023-05-29T05:28:40;15.18;;;3.60;;
71108;SDS011;59614;51.012;-1.648;2023-05-29T05:31:06;15.02;;;3.85;;
71108;SDS011;59614;51.012;-1.648;2023-05-29T05:33:31;14.65;;;3.65;;
71108;SDS011;59614;51.012;-1.648;2023-05-29T05:35:57;19.00;;;3.30;;
71108;SDS011;59614;51.012;-1.648;2023-05-29T05:38:22;16.50;;;2.97;;
71108;SDS011;59614;51.012;-1.648;2023-05-29T05:40:47;16.67;;;3.40;;
71108;SDS011;59614;51.012;-1.648;2023-05-29T05:43:13;13.48;;;3.17;;
71108;SDS011;59614;51.012;-1.648;2023-05-29T05:45:38;9.35;;;3.08;;
71108;SDS011;59614;51.012;-1.648;2023-05-29T05:48:07;16.92;;;3.20;;
71108;SDS011;59614;51.012;-1.648;2023-05-29T05:50:33;15.95;;;3.25;;
71108;SDS011;59614;51.012;-1.648;2023-05-29T05:52:58;14.25;;;3.30;;
71108;SDS011;59614;51.012;-1.648;2023-05-29T05:55:24;14.68;;;3.50;;
71108;SDS011;59614;51.012;-1.648;2023-05-29T05:57:51;15.50;;;3.80;;
71108;SDS011;59614;51.012;-1.648;2023-05-29T06:00:17;17.60;;;3.40;;
71108;SDS011;59614;51.012;-1.648;2023-05-29T06:02:42;19.77;;;3.80;;
71108;SDS011;59614;51.012;-1.648;2023-05-29T06:05:09;15.57;;;3.23;;
71108;SDS011;59614;51.012;-1.648;2023-05-29T06:07:36;15.25;;;3.20;;
71108;SDS011;59614;51.012;-1.648;2023-05-29T06:10:02;16.48;;;3.65;;
71108;SDS011;59614;51.012;-1.648;2023-05-29T06:12:28;18.38;;;3.47;;
71108;SDS011;59614;51.012;-1.648;2023-05-29T06:14:54;12.63;;;3.25;;
71108;SDS011;59614;51.012;-1.648;2023-05-29T06:17:20;14.80;;;2.80;;
71108;SDS011;59614;51.012;-1.648;2023-05-29T06:19:46;15.52;;;3.40;;
71108;SDS011;59614;51.012;-1.648;2023-05-29T06:22:11;15.43;;;3.65;;
71108;SDS011;59614;51.012;-1.648;2023-05-29T06:24:37;11.23;;;3.13;;
71108;SDS011;59614;51.012;-1.648;2023-05-29T06:27:02;13.90;;;3.03;;
71108;SDS011;59614;51.012;-1.648;2023-05-29T06:29:28;13.82;;;3.50;;
71108;SDS011;59614;51.012;-1.648;2023-05-29T06:31:53;14.70;;;3.00;;
71108;SDS011;59614;51.012;-1.648;2023-05-29T06:34:18;12.27;;;3.25;;
71108;SDS011;59614;51.012;-1.648;2023-05-29T06:36:44;19.55;;;3.88;;
71108;SDS011;59614;51.012;-1.648;2023-05-29T06:39:10;13.35;;;3.58;;
71108;SDS011;59614;51.012;-1.648;2023-05-29T06:41:35;15.40;;;4.60;;
71108;SDS011;59614;51.012;-1.648;2023-05-29T06:44:01;17.83;;;3.50;;
71108;SDS011;59614;51.012;-1.648;2023-05-29T06:46:26;15.82;;;2.97;;
71108;SDS011;59614;51.012;-1.648;2023-05-29T06:48:51;13.52;;;3.40;;
71108;SDS011;59614;51.012;-1.648;2023-05-29T06:51:17;14.73;;;3.17;;
71108;SDS011;59614;51.012;-1.648;2023-05-29T06:53:42;17.75;;;3.78;;
71108;SDS011;59614;51.012;-1.648;2023-05-29T06:56:08;13.27;;;3.63;;
71108;SDS011;59614;51.012;-1.648;2023-05-29T06:58:33;16.83;;;3.13;;
71108;SDS011;59614;51.012;-1.648;2023-05-29T07:00:59;18.05;;;3.47;;
71108;SDS011;59614;51.012;-1.648;2023-05-29T07:03:25;13.13;;;3.05;;
71108;SDS011;59614;51.012;-1.648;2023-05-29T07:05:51;13.80;;;3.13;;
71108;SDS011;59614;51.012;-1.648;2023-05-29T07:08:17;20.95;;;3.67;;
71108;SDS011;59614;51.012;-1.648;2023-05-29T07:10:42;11.68;;;3.45;;
71108;SDS011;59614;51.012;-1.648;2023-05-29T07:13:08;12.23;;;3.47;;
71108;SDS011;59614;51.012;-1.648;2023-05-29T07:15:33;11.48;;;3.10;;
71108;SDS011;59614;51.012;-1.648;2023-05-29T07:18:00;13.25;;;3.50;;
71108;SDS011;59614;51.012;-1.648;2023-05-29T07:20:25;7.82;;;2.90;;
71108;SDS011;59614;51.012;-1.648;2023-05-29T07:22:51;15.00;;;3.30;;
71108;SDS011;59614;51.012;-1.648;2023-05-29T07:25:16;14.05;;;3.30;;
71108;SDS011;59614;51.012;-1.648;2023-05-29T07:27:42;10.40;;;3.05;;
71108;SDS011;59614;51.012;-1.648;2023-05-29T07:30:07;13.63;;;3.30;;
71108;SDS011;59614;51.012;-1.648;2023-05-29T07:32:33;13.02;;;3.28;;
71108;SDS011;59614;51.012;-1.648;2023-05-29T07:34:58;13.77;;;2.92;;
71108;SDS011;59614;51.012;-1.648;2023-05-29T07:37:24;14.00;;;3.53;;
71108;SDS011;59614;51.012;-1.648;2023-05-29T07:39:49;12.20;;;3.10;;
71108;SDS011;59614;51.012;-1.648;2023-05-29T07:42:15;14.23;;;3.40;;
71108;SDS011;59614;51.012;-1.648;2023-05-29T07:44:40;13.85;;;3.55;;
71108;SDS011;59614;51.012;-1.648;2023-05-29T07:47:08;10.10;;;3.22;;
71108;SDS011;59614;51.012;-1.648;2023-05-29T07:49:34;14.55;;;3.22;;
71108;SDS011;59614;51.012;-1.648;2023-05-29T07:52:01;18.63;;;3.03;;
71108;SDS011;59614;51.012;-1.648;2023-05-29T07:54:27;16.10;;;3.40;;
71108;SDS011;59614;51.012;-1.648;2023-05-29T07:56:52;9.25;;;2.83;;
71108;SDS011;59614;51.012;-1.648;2023-05-29T07:59:18;12.25;;;3.75;;
71108;SDS011;59614;51.012;-1.648;2023-05-29T08:01:43;13.00;;;3.10;;
71108;SDS011;59614;51.012;-1.648;2023-05-29T08:04:09;12.70;;;3.25;;
71108;SDS011;59614;51.012;-1.648;2023-05-29T08:06:34;10.48;;;3.00;;
71108;SDS011;59614;51.012;-1.648;2023-05-29T08:09:01;12.80;;;3.53;;
71108;SDS011;59614;51.012;-1.648;2023-05-29T08:11:26;13.32;;;3.75;;
71108;SDS011;59614;51.012;-1.648;2023-05-29T08:13:52;12.57;;;3.50;;
71108;SDS011;59614;51.012;-1.648;2023-05-29T08:16:18;17.17;;;3.20;;
71108;SDS011;59614;51.012;-1.648;2023-05-29T08:18:43;14.10;;;3.80;;
71108;SDS011;59614;51.012;-1.648;2023-05-29T08:21:08;17.58;;;3.33;;
71108;SDS011;59614;51.012;-1.648;2023-05-29T08:23:37;8.63;;;3.20;;
71108;SDS011;59614;51.012;-1.648;2023-05-29T08:26:03;12.55;;;3.80;;
71108;SDS011;59614;51.012;-1.648;2023-05-29T08:28:28;13.35;;;3.40;;
71108;SDS011;59614;51.012;-1.648;2023-05-29T08:30:54;9.73;;;3.10;;
71108;SDS011;59614;51.012;-1.648;2023-05-29T08:33:19;12.48;;;3.63;;
71108;SDS011;59614;51.012;-1.648;2023-05-29T08:35:45;13.82;;;3.40;;
71108;SDS011;59614;51.012;-1.648;2023-05-29T08:38:10;14.63;;;3.28;;
71108;SDS011;59614;51.012;-1.648;2023-05-29T08:40:36;10.23;;;2.83;;
71108;SDS011;59614;51.012;-1.648;2023-05-29T08:43:10;14.68;;;2.92;;
71108;SDS011;59614;51.012;-1.648;2023-05-29T08:45:41;13.18;;;3.28;;
71108;SDS011;59614;51.012;-1.648;2023-05-29T08:48:09;12.02;;;3.35;;
71108;SDS011;59614;51.012;-1.648;2023-05-29T08:50:35;10.75;;;3.15;;
71108;SDS011;59614;51.012;-1.648;2023-05-29T08:53:01;11.77;;;3.22;;
71108;SDS011;59614;51.012;-1.648;2023-05-29T08:55:27;15.60;;;3.33;;
71108;SDS011;59614;51.012;-1.648;2023-05-29T08:57:53;13.70;;;2.85;;
71108;SDS011;59614;51.012;-1.648;2023-05-29T09:00:18;11.77;;;3.10;;
71108;SDS011;59614;51.012;-1.648;2023-05-29T09:02:47;12.07;;;3.50;;
71108;SDS011;59614;51.012;-1.648;2023-05-29T09:05:12;12.07;;;3.08;;
71108;SDS011;59614;51.012;-1.648;2023-05-29T09:07:38;11.98;;;3.40;;
71108;SDS011;59614;51.012;-1.648;2023-05-29T09:10:10;9.82;;;2.72;;
71108;SDS011;59614;51.012;-1.648;2023-05-29T09:12:36;10.85;;;2.92;;
71108;SDS011;59614;51.012;-1.648;2023-05-29T09:15:02;9.60;;;2.90;;
71108;SDS011;59614;51.012;-1.648;2023-05-29T09:17:31;15.43;;;3.42;;
71108;SDS011;59614;51.012;-1.648;2023-05-29T09:19:57;10.30;;;2.97;;
71108;SDS011;59614;51.012;-1.648;2023-05-29T09:22:23;11.23;;;3.10;;
71108;SDS011;59614;51.012;-1.648;2023-05-29T09:24:48;9.30;;;2.95;;
71108;SDS011;59614;51.012;-1.648;2023-05-29T09:27:15;13.70;;;3.07;;
71108;SDS011;59614;51.012;-1.648;2023-05-29T09:29:42;10.10;;;2.95;;
71108;SDS011;59614;51.012;-1.648;2023-05-29T09:34:37;15.88;;;3.40;;
71108;SDS011;59614;51.012;-1.648;2023-05-29T09:37:04;10.90;;;3.17;;
71108;SDS011;59614;51.012;-1.648;2023-05-29T09:39:50;10.57;;;2.88;;
71108;SDS011;59614;51.012;-1.648;2023-05-29T09:42:18;10.95;;;3.30;;
71108;SDS011;59614;51.012;-1.648;2023-05-29T09:44:45;10.75;;;3.55;;
71108;SDS011;59614;51.012;-1.648;2023-05-29T09:47:18;11.10;;;2.85;;
71108;SDS011;59614;51.012;-1.648;2023-05-29T09:49:45;18.35;;;3.42;;
71108;SDS011;59614;51.012;-1.648;2023-05-29T09:52:11;12.00;;;3.20;;
71108;SDS011;59614;51.012;-1.648;2023-05-29T09:54:43;8.82;;;3.28;;
71108;SDS011;59614;51.012;-1.648;2023-05-29T09:57:12;14.50;;;3.50;;
71108;SDS011;59614;51.012;-1.648;2023-05-29T09:59:40;9.55;;;3.15;;
71108;SDS011;59614;51.012;-1.648;2023-05-29T10:02:09;12.27;;;3.00;;
71108;SDS011;59614;51.012;-1.648;2023-05-29T10:04:37;10.80;;;3.72;;
71108;SDS011;59614;51.012;-1.648;2023-05-29T10:09:34;10.68;;;3.17;;
71108;SDS011;59614;51.012;-1.648;2023-05-29T10:12:08;11.23;;;3.63;;
71108;SDS011;59614;51.012;-1.648;2023-05-29T10:14:36;10.02;;;3.20;;
71108;SDS011;59614;51.012;-1.648;2023-05-29T10:17:06;10.02;;;3.25;;
71108;SDS011;59614;51.012;-1.648;2023-05-29T10:19:33;11.00;;;2.90;;
71108;SDS011;59614;51.012;-1.648;2023-05-29T10:22:01;14.77;;;3.10;;
71108;SDS011;59614;51.012;-1.648;2023-05-29T10:24:28;10.27;;;2.85;;
71108;SDS011;59614;51.012;-1.648;2023-05-29T10:26:55;13.40;;;3.17;;
71108;SDS011;59614;51.012;-1.648;2023-05-29T10:29:29;12.30;;;2.90;;
71108;SDS011;59614;51.012;-1.648;2023-05-29T10:39:54;12.77;;;3.03;;
71108;SDS011;59614;51.012;-1.648;2023-05-29T10:45:47;8.30;;;2.67;;
71108;SDS011;59614;51.012;-1.648;2023-05-29T10:53:03;12.60;;;3.33;;
71108;SDS011;59614;51.012;-1.648;2023-05-29T10:55:38;15.52;;;3.20;;
71108;SDS011;59614;51.012;-1.648;2023-05-29T10:58:23;17.75;;;3.55;;
71108;SDS011;59614;51.012;-1.648;2023-05-29T11:00:50;11.63;;;3.00;;
71108;SDS011;59614;51.012;-1.648;2023-05-29T11:03:25;10.20;;;3.00;;
71108;SDS011;59614;51.012;-1.648;2023-05-29T11:06:02;11.57;;;3.10;;
71108;SDS011;59614;51.012;-1.648;2023-05-29T11:13:53;13.32;;;3.22;;
71108;SDS011;59614;51.012;-1.648;2023-05-29T11:16:35;10.05;;;2.97;;
71108;SDS011;59614;51.012;-1.648;2023-05-29T11:19:06;12.15;;;3.22;;
71108;SDS011;59614;51.012;-1.648;2023-05-29T11:24:21;9.00;;;3.30;;
71108;SDS011;59614;51.012;-1.648;2023-05-29T11:26:49;7.47;;;2.90;;
71108;SDS011;59614;51.012;-1.648;2023-05-29T11:29:16;7.40;;;2.63;;
71108;SDS011;59614;51.012;-1.648;2023-05-29T11:31:46;8.23;;;2.90;;
71108;SDS011;59614;51.012;-1.648;2023-05-29T11:34:14;12.27;;;2.80;;
71108;SDS011;59614;51.012;-1.648;2023-05-29T11:36:40;8.38;;;3.05;;
71108;SDS011;59614;51.012;-1.648;2023-05-29T11:39:08;11.65;;;3.00;;
71108;SDS011;59614;51.012;-1.648;2023-05-29T11:41:34;11.52;;;3.05;;
71108;SDS011;59614;51.012;-1.648;2023-05-29T11:44:00;12.18;;;3.15;;
71108;SDS011;59614;51.012;-1.648;2023-05-29T11:46:27;10.63;;;3.03;;
71108;SDS011;59614;51.012;-1.648;2023-05-29T11:49:00;8.07;;;2.80;;
71108;SDS011;59614;51.012;-1.648;2023-05-29T11:51:27;19.27;;;3.40;;
71108;SDS011;59614;51.012;-1.648;2023-05-29T11:53:52;6.60;;;2.78;;
71108;SDS011;59614;51.012;-1.648;2023-05-29T11:56:23;11.98;;;3.25;;
71108;SDS011;59614;51.012;-1.648;2023-05-29T11:58:50;11.88;;;3.00;;
71108;SDS011;59614;51.012;-1.648;2023-05-29T12:01:20;8.55;;;2.92;;
71108;SDS011;59614;51.012;-1.648;2023-05-29T12:03:46;11.77;;;3.20;;
71108;SDS011;59614;51.012;-1.648;2023-05-29T12:06:11;10.27;;;3.25;;
71108;SDS011;59614;51.012;-1.648;2023-05-29T12:08:37;9.82;;;2.85;;
71108;SDS011;59614;51.012;-1.648;2023-05-29T12:11:03;12.90;;;3.03;;
71108;SDS011;59614;51.012;-1.648;2023-05-29T12:13:29;11.63;;;3.10;;
71108;SDS011;59614;51.012;-1.648;2023-05-29T12:15:56;10.68;;;3.20;;
71108;SDS011;59614;51.012;-1.648;2023-05-29T12:18:31;10.68;;;3.25;;
71108;SDS011;59614;51.012;-1.648;2023-05-29T12:20:59;11.85;;;2.85;;
71108;SDS011;59614;51.012;-1.648;2023-05-29T12:23:26;6.88;;;2.90;;
71108;SDS011;59614;51.012;-1.648;2023-05-29T12:25:53;9.65;;;2.60;;
71108;SDS011;59614;51.012;-1.648;2023-05-29T12:28:19;8.52;;;3.20;;
71108;SDS011;59614;51.012;-1.648;2023-05-29T12:30:46;9.80;;;3.00;;
71108;SDS011;59614;51.012;-1.648;2023-05-29T12:33:27;8.13;;;2.78;;
71108;SDS011;59614;51.012;-1.648;2023-05-29T12:36:07;9.88;;;2.80;;
71108;SDS011;59614;51.012;-1.648;2023-05-29T12:38:49;11.35;;;3.17;;
71108;SDS011;59614;51.012;-1.648;2023-05-29T12:43:54;7.55;;;3.15;;
71108;SDS011;59614;51.012;-1.648;2023-05-29T12:46:21;11.10;;;3.38;;
71108;SDS011;59614;51.012;-1.648;2023-05-29T12:48:47;11.98;;;3.40;;
71108;SDS011;59614;51.012;-1.648;2023-05-29T12:51:14;10.77;;;3.30;;
71108;SDS011;59614;51.012;-1.648;2023-05-29T12:53:40;8.07;;;3.20;;
71108;SDS011;59614;51.012;-1.648;2023-05-29T12:56:05;9.85;;;3.42;;
71108;SDS011;59614;51.012;-1.648;2023-05-29T12:58:31;8.52;;;3.45;;
71108;SDS011;59614;51.012;-1.648;2023-05-29T13:00:56;9.55;;;2.95;;
71108;SDS011;59614;51.012;-1.648;2023-05-29T13:03:21;7.13;;;3.15;;
71108;SDS011;59614;51.012;-1.648;2023-05-29T13:05:51;12.32;;;3.03;;
71108;SDS011;59614;51.012;-1.648;2023-05-29T13:08:17;12.00;;;2.92;;
71108;SDS011;59614;51.012;-1.648;2023-05-29T13:10:44;8.20;;;3.13;;
71108;SDS011;59614;51.012;-1.648;2023-05-29T13:13:10;13.38;;;3.97;;
71108;SDS011;59614;51.012;-1.648;2023-05-29T13:15:37;8.60;;;3.35;;
71108;SDS011;59614;51.012;-1.648;2023-05-29T13:18:03;11.73;;;3.35;;
71108;SDS011;59614;51.012;-1.648;2023-05-29T13:20:28;10.38;;;3.33;;
71108;SDS011;59614;51.012;-1.648;2023-05-29T13:22:55;11.73;;;3.33;;
71108;SDS011;59614;51.012;-1.648;2023-05-29T13:25:20;12.80;;;3.33;;
71108;SDS011;59614;51.012;-1.648;2023-05-29T13:27:46;9.23;;;3.42;;
71108;SDS011;59614;51.012;-1.648;2023-05-29T13:30:13;13.43;;;3.20;;
71108;SDS011;59614;51.012;-1.648;2023-05-29T13:32:40;12.07;;;3.30;;
71108;SDS011;59614;51.012;-1.648;2023-05-29T13:35:06;12.07;;;2.97;;
71108;SDS011;59614;51.012;-1.648;2023-05-29T13:37:32;9.27;;;3.10;;
71108;SDS011;59614;51.012;-1.648;2023-05-29T13:39:57;10.77;;;3.13;;
71108;SDS011;59614;51.012;-1.648;2023-05-29T13:42:23;13.45;;;3.40;;
71108;SDS011;59614;51.012;-1.648;2023-05-29T13:44:49;9.45;;;3.22;;
71108;SDS011;59614;51.012;-1.648;2023-05-29T13:47:14;11.60;;;3.42;;
71108;SDS011;59614;51.012;-1.648;2023-05-29T13:49:40;10.52;;;3.45;;
71108;SDS011;59614;51.012;-1.648;2023-05-29T13:52:06;12.52;;;3.53;;
71108;SDS011;59614;51.012;-1.648;2023-05-29T13:54:32;9.77;;;3.45;;
71108;SDS011;59614;51.012;-1.648;2023-05-29T13:57:04;17.58;;;3.53;;
71108;SDS011;59614;51.012;-1.648;2023-05-29T13:59:31;14.25;;;3.53;;
71108;SDS011;59614;51.012;-1.648;2023-05-29T14:02:00;10.63;;;3.05;;
71108;SDS011;59614;51.012;-1.648;2023-05-29T14:04:26;9.13;;;3.10;;
71108;SDS011;59614;51.012;-1.648;2023-05-29T14:06:52;7.32;;;2.90;;
71108;SDS011;59614;51.012;-1.648;2023-05-29T14:09:18;10.57;;;3.08;;
71108;SDS011;59614;51.012;-1.648;2023-05-29T14:11:51;11.73;;;3.45;;
71108;SDS011;59614;51.012;-1.648;2023-05-29T14:14:17;12.10;;;3.70;;
71108;SDS011;59614;51.012;-1.648;2023-05-29T14:16:42;13.23;;;3.60;;
71108;SDS011;59614;51.012;-1.648;2023-05-29T14:19:08;11.02;;;3.63;;
71108;SDS011;59614;51.012;-1.648;2023-05-29T14:21:33;9.82;;;3.58;;
71108;SDS011;59614;51.012;-1.648;2023-05-29T14:24:00;16.20;;;4.15;;
71108;SDS011;59614;51.012;-1.648;2023-05-29T14:26:26;9.80;;;3.55;;
71108;SDS011;59614;51.012;-1.648;2023-05-29T14:28:51;11.73;;;3.58;;
71108;SDS011;59614;51.012;-1.648;2023-05-29T14:31:17;8.93;;;3.42;;
71108;SDS011;59614;51.012;-1.648;2023-05-29T14:33:42;8.60;;;3.35;;
71108;SDS011;59614;51.012;-1.648;2023-05-29T14:36:07;10.55;;;3.50;;
71108;SDS011;59614;51.012;-1.648;2023-05-29T14:38:33;11.93;;;3.90;;
71108;SDS011;59614;51.012;-1.648;2023-05-29T14:40:58;13.32;;;4.00;;
71108;SDS011;59614;51.012;-1.648;2023-05-29T14:43:23;11.57;;;3.55;;
71108;SDS011;59614;51.012;-1.648;2023-05-29T14:45:49;9.70;;;3.60;;
71108;SDS011;59614;51.012;-1.648;2023-05-29T14:48:14;14.55;;;3.78;;
71108;SDS011;59614;51.012;-1.648;2023-05-29T14:50:41;12.07;;;3.80;;
71108;SDS011;59614;51.012;-1.648;2023-05-29T14:53:06;10.80;;;3.47;;
71108;SDS011;59614;51.012;-1.648;2023-05-29T14:55:32;14.32;;;3.40;;
71108;SDS011;59614;51.012;-1.648;2023-05-29T14:58:02;9.90;;;3.17;;